createdAt,value
2018-09-08T00:00:05.861Z,21.40
2018-09-08T00:02:34.572Z,21.77
2018-09-08T00:05:03.787Z,22.33
2018-09-08T00:07:38.877Z,21.37
2018-09-08T00:10:09.765Z,21.40
2018-09-08T00:12:38.473Z,22.60
2018-09-08T00:15:12.408Z,21.90
2018-09-08T00:17:46.169Z,21.93
2018-09-08T00:20:21.304Z,22.67
2018-09-08T00:22:55.326Z,22.40
2018-09-08T00:25:30.319Z,22.90
2018-09-08T00:28:04.698Z,22.40
2018-09-08T00:30:33.647Z,23.23
2018-09-08T00:33:02.400Z,23.17
2018-09-08T00:35:31.266Z,23.87
2018-09-08T00:37:59.986Z,22.83
2018-09-08T00:40:29.416Z,24.50
2018-09-08T00:42:59.347Z,23.67
2018-09-08T00:45:28.029Z,23.50
2018-09-08T00:47:57.050Z,24.00
2018-09-08T00:50:26.008Z,23.40
2018-09-08T00:52:54.810Z,24.33
2018-09-08T00:55:23.835Z,23.00
2018-09-08T00:57:52.581Z,24.83
2018-09-08T01:00:21.293Z,25.43
2018-09-08T01:02:49.863Z,25.77
2018-09-08T01:05:18.522Z,25.10
2018-09-08T01:07:47.373Z,26.00
2018-09-08T01:10:16.963Z,24.87
2018-09-08T01:12:45.745Z,24.43
2018-09-08T01:15:14.443Z,25.00
2018-09-08T01:17:43.163Z,24.33
2018-09-08T01:20:11.902Z,23.93
2018-09-08T01:22:40.786Z,25.27
2018-09-08T01:25:09.502Z,24.83
2018-09-08T01:27:38.213Z,25.67
2018-09-08T01:30:07.232Z,27.40
2018-09-08T01:32:35.923Z,26.60
2018-09-08T01:35:04.820Z,28.53
2018-09-08T01:37:33.577Z,26.47
2018-09-08T01:40:02.286Z,27.37
2018-09-08T01:42:31.001Z,28.60
2018-09-08T01:44:59.693Z,28.27
2018-09-08T01:47:28.638Z,29.33
2018-09-08T01:49:57.306Z,28.40
2018-09-08T01:52:27.068Z,29.13
2018-09-08T01:54:55.741Z,29.60
2018-09-08T01:57:24.453Z,29.17
2018-09-08T01:59:53.281Z,28.33
2018-09-08T02:02:22.834Z,29.70
2018-09-08T02:04:51.767Z,30.43
2018-09-08T02:07:20.525Z,29.80
2018-09-08T02:09:50.413Z,30.50
2018-09-08T02:12:19.211Z,33.73
2018-09-08T02:14:47.913Z,31.93
2018-09-08T02:17:17.732Z,31.40
2018-09-08T02:19:46.850Z,29.70
2018-09-08T02:22:15.531Z,30.47
2018-09-08T02:24:44.189Z,30.77
2018-09-08T02:27:12.885Z,30.30
2018-09-08T02:29:41.534Z,30.73
2018-09-08T02:32:11.190Z,31.57
2018-09-08T02:34:39.884Z,30.30
2018-09-08T02:37:08.608Z,30.90
2018-09-08T02:39:37.486Z,30.70
2018-09-08T02:42:06.534Z,29.50
2018-09-08T02:44:35.286Z,33.37
2018-09-08T02:47:03.973Z,30.97
2018-09-08T02:49:44.114Z,30.90
2018-09-08T02:52:11.418Z,30.20
2018-09-08T02:54:38.778Z,30.70
2018-09-08T02:57:06.095Z,29.40
2018-09-08T02:59:33.446Z,29.10
2018-09-08T03:02:00.795Z,32.27
2018-09-08T03:04:28.216Z,30.70
2018-09-08T03:06:55.523Z,33.03
2018-09-08T03:09:22.842Z,32.37
2018-09-08T03:11:50.178Z,31.53
2018-09-08T03:14:17.655Z,32.60
2018-09-08T03:16:44.969Z,32.80
2018-09-08T03:19:12.441Z,32.47
2018-09-08T03:21:40.822Z,32.87
2018-09-08T03:24:09.127Z,32.83
2018-09-08T03:26:37.697Z,33.97
2018-09-08T03:29:05.003Z,32.37
2018-09-08T03:31:33.270Z,33.35
2018-09-08T03:34:00.638Z,33.73
2018-09-08T03:36:28.492Z,33.70
2018-09-08T03:38:55.818Z,35.87
2018-09-08T03:41:23.285Z,35.53
2018-09-08T03:43:50.957Z,33.77
2018-09-08T03:46:18.567Z,33.90
2018-09-08T03:48:46.859Z,34.90
2018-09-08T03:51:14.190Z,36.53
2018-09-08T03:53:41.524Z,36.00
2018-09-08T03:56:09.472Z,36.53
2018-09-08T03:58:36.837Z,37.60
2018-09-08T04:01:04.133Z,40.27
2018-09-08T04:03:32.713Z,39.33
2018-09-08T04:06:01.405Z,39.90
2018-09-08T04:08:30.093Z,37.10
2018-09-08T04:10:58.762Z,36.00
2018-09-08T04:13:27.568Z,38.23
2018-09-08T04:15:56.168Z,35.03
2018-09-08T04:18:24.824Z,36.87
2018-09-08T04:20:53.530Z,36.63
2018-09-08T04:23:22.222Z,34.90
2018-09-08T04:25:51.021Z,37.70
2018-09-08T04:28:19.715Z,37.20
2018-09-08T04:30:48.344Z,36.77
2018-09-08T04:33:17.090Z,36.20
2018-09-08T04:35:45.779Z,37.17
2018-09-08T04:38:14.475Z,34.63
2018-09-08T04:40:44.264Z,37.33
2018-09-08T04:43:15.115Z,35.17
2018-09-08T04:45:44.139Z,35.73
2018-09-08T04:48:12.910Z,36.17
2018-09-08T04:50:42.117Z,33.63
2018-09-08T04:53:10.757Z,34.57
2018-09-08T04:55:39.705Z,34.77
2018-09-08T04:58:08.517Z,37.23
2018-09-08T05:00:37.066Z,35.80
2018-09-08T05:03:05.801Z,36.63
2018-09-08T05:05:34.676Z,35.90
2018-09-08T05:08:04.284Z,35.70
2018-09-08T05:10:33.662Z,37.53
2018-09-08T05:13:02.369Z,36.50
2018-09-08T05:15:31.678Z,39.00
2018-09-08T05:18:00.434Z,38.50
2018-09-08T05:20:29.169Z,40.45
2018-09-08T05:22:57.789Z,40.63
2018-09-08T05:25:26.513Z,41.33
2018-09-08T05:27:55.291Z,40.53
2018-09-08T05:30:24.913Z,42.10
2018-09-08T05:32:53.633Z,42.80
2018-09-08T05:35:22.260Z,45.73
2018-09-08T05:37:51.099Z,44.23
2018-09-08T05:40:19.955Z,47.00
2018-09-08T05:42:48.770Z,43.17
2018-09-08T05:45:17.442Z,45.10
2018-09-08T05:47:46.176Z,47.37
2018-09-08T05:50:14.889Z,44.33
2018-09-08T05:52:43.635Z,43.57
2018-09-08T05:55:12.400Z,42.03
2018-09-08T05:57:41.110Z,40.73
2018-09-08T06:00:10.922Z,37.07
2018-09-08T06:02:39.673Z,38.27
2018-09-08T06:05:08.370Z,37.30
2018-09-08T06:07:37.492Z,38.53
2018-09-08T06:10:06.341Z,37.13
2018-09-08T06:12:36.026Z,33.80
2018-09-08T06:15:04.806Z,34.23
2018-09-08T06:17:33.529Z,32.03
2018-09-08T06:20:02.441Z,32.17
2018-09-08T06:22:31.152Z,30.83
2018-09-08T06:24:59.890Z,27.67
2018-09-08T06:27:28.581Z,29.43
2018-09-08T06:29:57.617Z,30.67
2018-09-08T06:32:26.431Z,29.33
2018-09-08T06:34:56.138Z,29.17
2018-09-08T06:37:25.617Z,28.43
2018-09-08T06:39:54.873Z,26.90
2018-09-08T06:42:24.641Z,26.23
2018-09-08T06:44:55.411Z,25.20
2018-09-08T06:47:24.170Z,25.73
2018-09-08T06:49:52.792Z,24.67
2018-09-08T06:52:21.819Z,24.30
2018-09-08T06:54:50.533Z,25.63
2018-09-08T06:57:19.159Z,25.17
2018-09-08T06:59:47.953Z,25.07
2018-09-08T07:02:16.698Z,25.53
2018-09-08T07:04:45.699Z,25.87
2018-09-08T07:07:14.506Z,25.53
2018-09-08T07:09:44.030Z,21.70
2018-09-08T07:12:12.837Z,21.70
2018-09-08T07:14:42.685Z,23.43
2018-09-08T07:17:12.362Z,23.60
2018-09-08T07:19:41.133Z,21.33
2018-09-08T07:22:09.823Z,23.83
2018-09-08T07:24:38.442Z,22.47
2018-09-08T07:27:07.198Z,22.80
2018-09-08T07:29:35.959Z,26.77
2018-09-08T07:32:04.742Z,26.37
2018-09-08T07:34:33.438Z,27.33
2018-09-08T07:37:03.105Z,32.53
2018-09-08T07:39:31.835Z,26.27
2018-09-08T07:42:01.155Z,29.13
2018-09-08T07:44:29.786Z,30.90
2018-09-08T07:46:58.483Z,27.67
2018-09-08T07:49:29.333Z,26.80
2018-09-08T07:51:58.028Z,29.47
2018-09-08T07:54:26.664Z,28.90
2018-09-08T07:56:55.683Z,29.20
2018-09-08T07:59:25.164Z,37.03
2018-09-08T08:01:54.633Z,28.07
2018-09-08T08:04:23.494Z,26.70
2018-09-08T08:06:52.195Z,25.37
2018-09-08T08:09:21.058Z,26.50
2018-09-08T08:11:49.713Z,24.67
2018-09-08T08:14:19.786Z,24.87
2018-09-08T08:16:48.591Z,27.83
2018-09-08T08:19:17.365Z,25.70
2018-09-08T08:21:46.192Z,27.63
2018-09-08T08:24:15.151Z,23.57
2018-09-08T08:26:43.888Z,23.97
2018-09-08T08:29:12.707Z,24.13
2018-09-08T08:31:41.505Z,24.57
2018-09-08T08:34:10.483Z,21.17
2018-09-08T08:36:39.210Z,21.93
2018-09-08T08:39:09.065Z,24.50
2018-09-08T08:41:37.798Z,24.57
2018-09-08T08:44:06.507Z,21.67
2018-09-08T08:46:35.351Z,20.93
2018-09-08T08:49:04.579Z,19.70
2018-09-08T08:52:43.221Z,18.87
2018-09-08T08:55:10.552Z,17.83
2018-09-08T08:57:40.368Z,18.93
2018-09-08T09:00:09.115Z,18.00
2018-09-08T09:02:37.821Z,16.03
2018-09-08T09:05:06.518Z,17.53
2018-09-08T09:07:35.467Z,16.53
2018-09-08T09:10:03.957Z,15.40
2018-09-08T09:12:32.844Z,16.13
2018-09-08T09:15:02.011Z,18.43
2018-09-08T09:17:30.449Z,16.57
2018-09-08T09:20:10.194Z,17.23
2018-09-08T09:22:49.886Z,16.00
2018-09-08T09:25:18.891Z,15.73
2018-09-08T09:27:48.727Z,14.90
2018-09-08T09:30:18.258Z,15.80
2018-09-08T09:32:47.016Z,15.50
2018-09-08T09:35:18.001Z,14.47
2018-09-08T09:37:46.775Z,15.60
2018-09-08T09:40:16.520Z,14.17
2018-09-08T09:42:45.349Z,13.53
2018-09-08T09:45:14.114Z,12.87
2018-09-08T09:47:43.709Z,12.83
2018-09-08T09:50:13.218Z,12.37
2018-09-08T09:52:42.303Z,9.70
2018-09-08T09:55:11.132Z,9.97
2018-09-08T09:57:40.095Z,10.00
2018-09-08T10:00:10.049Z,8.87
2018-09-08T10:02:40.855Z,9.10
2018-09-08T10:05:12.088Z,9.50
2018-09-08T10:07:41.076Z,9.23
2018-09-08T10:10:12.114Z,9.00
2018-09-08T10:12:41.065Z,9.60
2018-09-08T10:15:10.447Z,9.13
2018-09-08T10:17:40.049Z,9.13
2018-09-08T10:20:11.329Z,12.47
2018-09-08T10:22:40.962Z,7.50
2018-09-08T10:25:11.704Z,7.90
2018-09-08T10:27:40.857Z,8.33
2018-09-08T10:30:10.764Z,8.70
2018-09-08T10:32:39.755Z,8.03
2018-09-08T10:35:08.752Z,9.43
2018-09-08T10:37:37.762Z,9.43
2018-09-08T10:40:07.693Z,8.07
2018-09-08T10:42:36.502Z,7.47
2018-09-08T10:45:05.729Z,8.77
2018-09-08T10:47:34.618Z,9.60
2018-09-08T10:50:03.342Z,8.77
2018-09-08T10:52:33.473Z,9.57
2018-09-08T10:55:02.480Z,7.40
2018-09-08T10:57:33.010Z,7.80
2018-09-08T11:00:02.841Z,6.90
2018-09-08T11:02:32.245Z,7.13
2018-09-08T11:05:01.547Z,6.90
2018-09-08T11:07:30.765Z,7.23
2018-09-08T11:10:00.084Z,7.30
2018-09-08T11:12:29.157Z,5.73
2018-09-08T11:14:58.640Z,5.70
2018-09-08T11:17:27.306Z,6.43
2018-09-08T11:19:56.433Z,5.60
2018-09-08T11:22:25.338Z,5.43
2018-09-08T11:24:54.285Z,5.40
2018-09-08T11:27:23.016Z,5.93
2018-09-08T11:29:51.657Z,6.03
2018-09-08T11:32:20.728Z,6.27
2018-09-08T11:34:49.368Z,5.93
2018-09-08T11:37:18.647Z,6.50
2018-09-08T11:39:47.476Z,6.20
2018-09-08T11:42:16.177Z,5.90
2018-09-08T11:44:44.950Z,6.83
2018-09-08T11:47:13.727Z,6.80
2018-09-08T11:49:42.429Z,5.60
2018-09-08T11:52:11.169Z,5.87
2018-09-08T11:54:40.163Z,6.33
2018-09-08T11:57:08.957Z,5.50
2018-09-08T11:59:37.609Z,5.80
2018-09-08T12:02:06.548Z,5.27
2018-09-08T12:04:35.425Z,5.10
2018-09-08T12:07:04.134Z,4.97
2018-09-08T12:09:34.155Z,4.90
2018-09-08T12:12:02.882Z,4.90
2018-09-08T12:14:31.774Z,5.10
2018-09-08T12:17:00.645Z,5.17
2018-09-08T12:19:29.546Z,5.03
2018-09-08T12:21:59.604Z,4.90
2018-09-08T12:24:28.369Z,5.17
2018-09-08T12:26:57.353Z,5.80
2018-09-08T12:29:26.243Z,6.43
2018-09-08T12:31:55.143Z,5.73
2018-09-08T12:34:23.924Z,6.10
2018-09-08T12:36:53.606Z,5.63
2018-09-08T12:39:22.369Z,5.30
2018-09-08T12:41:52.387Z,5.33
2018-09-08T12:44:22.005Z,5.70
2018-09-08T12:46:50.642Z,4.83
2018-09-08T12:49:19.334Z,4.60
2018-09-08T12:51:47.976Z,4.80
2018-09-08T12:54:16.806Z,4.30
2018-09-08T12:56:47.250Z,4.42
2018-09-08T12:59:16.140Z,4.43
2018-09-08T13:01:44.747Z,4.50
2018-09-08T13:04:13.510Z,3.83
2018-09-08T13:06:42.332Z,4.30
2018-09-08T13:09:11.025Z,4.27
2018-09-08T13:11:39.769Z,4.40
2018-09-08T13:14:08.486Z,4.40
2018-09-08T13:16:37.173Z,4.97
2018-09-08T13:19:06.142Z,4.23
2018-09-08T13:21:35.875Z,4.23
2018-09-08T13:24:04.553Z,4.23
2018-09-08T13:26:36.346Z,3.87
2018-09-08T13:29:04.977Z,4.53
2018-09-08T13:31:33.657Z,4.37
2018-09-08T13:34:02.410Z,4.53
2018-09-08T13:36:31.211Z,4.97
2018-09-08T13:39:00.092Z,4.80
2018-09-08T13:41:28.771Z,4.60
2018-09-08T13:43:57.433Z,4.00
2018-09-08T13:46:26.198Z,4.17
2018-09-08T13:48:54.882Z,3.60
2018-09-08T13:51:24.550Z,3.80
2018-09-08T13:53:53.301Z,4.10
2018-09-08T13:56:21.989Z,4.45
2018-09-08T13:58:50.749Z,4.80
2018-09-08T14:01:19.447Z,4.28
2018-09-08T14:03:48.733Z,4.33
2018-09-08T14:06:17.366Z,4.42
2018-09-08T14:08:46.103Z,5.57
2018-09-08T14:11:15.111Z,4.87
2018-09-08T14:13:43.832Z,4.27
2018-09-08T14:16:13.546Z,4.40
2018-09-08T14:18:42.303Z,4.40
2018-09-08T14:21:11.064Z,4.27
2018-09-08T14:23:39.775Z,4.47
2018-09-08T14:26:08.382Z,4.30
2018-09-08T14:28:37.102Z,4.40
2018-09-08T14:31:05.857Z,5.37
2018-09-08T14:33:34.538Z,4.65
2018-09-08T14:36:04.386Z,4.07
2018-09-08T14:38:32.957Z,4.23
2018-09-08T14:41:02.156Z,4.40
2018-09-08T14:43:30.842Z,3.87
2018-09-08T14:45:59.676Z,4.17
2018-09-08T14:48:28.344Z,4.10
2018-09-08T14:50:56.999Z,4.27
2018-09-08T14:53:25.694Z,4.23
2018-09-08T14:55:54.371Z,4.40
2018-09-08T14:58:23.096Z,4.37
2018-09-08T15:00:51.784Z,4.27
2018-09-08T15:03:20.504Z,4.27
2018-09-08T15:05:49.284Z,4.60
2018-09-08T15:08:17.970Z,5.20
2018-09-08T15:10:46.651Z,5.40
2018-09-08T15:13:15.363Z,4.83
2018-09-08T15:15:44.366Z,4.80
2018-09-08T15:18:13.034Z,5.27
2018-09-08T15:20:41.700Z,5.40
2018-09-08T15:23:10.334Z,4.23
2018-09-08T15:25:39.010Z,4.17
2018-09-08T15:28:07.706Z,4.33
2018-09-08T15:30:36.482Z,4.70
2018-09-08T15:33:05.161Z,4.77
2018-09-08T15:35:33.765Z,4.20
2018-09-08T15:38:02.661Z,3.80
2018-09-08T15:40:31.405Z,4.37
2018-09-08T15:43:00.049Z,4.57
2018-09-08T15:45:28.746Z,4.70
2018-09-08T15:47:59.166Z,4.37
2018-09-08T15:50:27.982Z,4.60
2018-09-08T15:52:56.690Z,3.80
2018-09-08T15:55:25.566Z,4.00
2018-09-08T15:57:54.371Z,5.77
2018-09-08T16:00:23.159Z,4.87
2018-09-08T16:02:51.910Z,5.30
2018-09-08T16:05:20.603Z,4.67
2018-09-08T16:07:49.306Z,6.53
2018-09-08T16:10:17.962Z,6.10
2018-09-08T16:12:46.578Z,3.73
2018-09-08T16:15:15.248Z,4.10
2018-09-08T16:17:44.588Z,4.33
2018-09-08T16:20:14.357Z,3.97
2018-09-08T16:22:43.112Z,3.67
2018-09-08T16:25:11.864Z,3.77
2018-09-08T16:27:40.478Z,4.20
2018-09-08T16:30:10.056Z,3.90
2018-09-08T16:32:38.814Z,3.70
2018-09-08T16:35:07.744Z,3.37
2018-09-08T16:37:36.353Z,3.83
2018-09-08T16:40:05.751Z,3.98
2018-09-08T16:42:34.755Z,4.63
2018-09-08T16:45:04.517Z,4.13
2018-09-08T16:47:33.209Z,4.20
2018-09-08T16:50:03.026Z,4.03
2018-09-08T16:52:31.601Z,4.33
2018-09-08T16:55:00.676Z,4.67
2018-09-08T16:57:29.705Z,5.47
2018-09-08T16:59:59.397Z,5.80
2018-09-08T17:02:28.287Z,5.57
2018-09-08T17:04:57.046Z,5.03
2018-09-08T17:07:25.742Z,5.07
2018-09-08T17:09:54.675Z,5.30
2018-09-08T17:12:23.531Z,6.60
2018-09-08T17:14:52.218Z,6.17
2018-09-08T17:17:21.062Z,7.20
2018-09-08T17:19:50.815Z,6.07
2018-09-08T17:22:19.470Z,6.20
2018-09-08T17:24:48.342Z,6.37
2018-09-08T17:27:17.098Z,6.87
2018-09-08T17:29:45.987Z,6.40
2018-09-08T17:32:14.740Z,6.83
2018-09-08T17:34:43.487Z,6.10
2018-09-08T17:37:12.243Z,9.00
2018-09-08T17:39:40.978Z,7.03
2018-09-08T17:42:10.088Z,6.37
2018-09-08T17:44:38.953Z,6.80
2018-09-08T17:47:07.869Z,7.07
2018-09-08T17:49:36.985Z,40.57
2018-09-08T17:52:06.917Z,17.70
2018-09-08T17:54:35.479Z,8.17
2018-09-08T17:57:04.171Z,8.17
2018-09-08T17:59:32.881Z,8.77
2018-09-08T18:02:01.688Z,8.13
2018-09-08T18:04:30.459Z,7.90
2018-09-08T18:06:59.294Z,8.03
2018-09-08T18:09:27.938Z,8.50
2018-09-08T18:11:56.758Z,8.60
2018-09-08T18:14:25.390Z,9.90
2018-09-08T18:16:54.034Z,10.10
2018-09-08T18:19:23.855Z,10.37
2018-09-08T18:21:52.591Z,8.23
2018-09-08T18:24:21.198Z,9.60
2018-09-08T18:26:50.014Z,9.87
2018-09-08T18:29:18.757Z,9.87
2018-09-08T18:31:47.449Z,10.40
2018-09-08T18:34:16.078Z,11.53
2018-09-08T18:36:44.766Z,12.87
2018-09-08T18:39:13.676Z,12.33
2018-09-08T18:41:42.403Z,12.63
2018-09-08T18:44:11.218Z,12.07
2018-09-08T18:46:39.934Z,10.40
2018-09-08T18:49:08.701Z,8.47
2018-09-08T18:51:39.273Z,8.57
2018-09-08T18:54:08.135Z,8.70
2018-09-08T18:56:36.921Z,8.23
2018-09-08T18:59:05.557Z,8.80
2018-09-08T19:01:34.436Z,8.60
2018-09-08T19:04:03.311Z,8.80
2018-09-08T19:06:32.015Z,9.10
2018-09-08T19:09:00.699Z,9.30
2018-09-08T19:11:29.420Z,10.40
2018-09-08T19:13:58.075Z,12.40
2018-09-08T19:16:26.866Z,11.40
2018-09-08T19:18:55.601Z,12.57
2018-09-08T19:21:24.442Z,12.63
2018-09-08T19:23:58.302Z,11.70
2018-09-08T19:26:27.077Z,13.77
2018-09-08T19:29:01.506Z,13.77
2018-09-08T19:31:31.195Z,14.10
2018-09-08T19:33:59.849Z,14.83
2018-09-08T19:36:28.616Z,12.43
2018-09-08T19:38:57.394Z,13.07
2018-09-08T19:41:26.530Z,12.10
2018-09-08T19:43:55.337Z,12.97
2018-09-08T19:46:29.335Z,12.23
2018-09-08T19:48:58.495Z,13.73
2018-09-08T19:51:27.413Z,16.13
2018-09-08T19:53:56.253Z,15.27
2018-09-08T19:56:30.142Z,14.93
2018-09-08T19:58:59.587Z,14.60
2018-09-08T20:01:28.960Z,18.00
2018-09-08T20:03:58.537Z,17.93
2018-09-08T20:06:27.707Z,21.17
2018-09-08T20:08:56.454Z,17.60
2018-09-08T20:11:25.179Z,13.13
2018-09-08T20:13:53.800Z,12.47
2018-09-08T20:16:22.800Z,12.17
2018-09-08T20:18:51.474Z,11.10
2018-09-08T20:21:20.746Z,11.27
2018-09-08T20:23:49.347Z,10.63
2018-09-08T20:26:18.114Z,10.20
2018-09-08T20:28:47.629Z,9.87
2018-09-08T20:31:16.227Z,10.10
2018-09-08T20:33:44.988Z,10.97
2018-09-08T20:36:13.695Z,11.67
2018-09-08T20:38:42.335Z,10.37
2018-09-08T20:41:11.014Z,10.20
2018-09-08T20:43:39.765Z,9.90
2018-09-08T20:46:08.534Z,10.10
2018-09-08T20:48:37.172Z,10.03
2018-09-08T20:51:05.803Z,9.07
2018-09-08T20:53:34.513Z,10.07
2018-09-08T20:56:03.320Z,11.23
2018-09-08T20:58:32.013Z,11.53
2018-09-08T21:01:00.708Z,13.17
2018-09-08T21:03:29.354Z,12.73
2018-09-08T21:05:58.049Z,13.70
2018-09-08T21:08:26.764Z,12.73
2018-09-08T21:10:55.501Z,13.00
2018-09-08T21:13:24.383Z,11.90
2018-09-08T21:15:53.014Z,12.50
2018-09-08T21:18:21.866Z,12.17
2018-09-08T21:20:50.465Z,11.90
2018-09-08T21:23:19.223Z,12.67
2018-09-08T21:25:47.878Z,11.83
2018-09-08T21:28:16.598Z,11.40
2018-09-08T21:30:45.859Z,10.63
2018-09-08T21:33:14.600Z,11.87
2018-09-08T21:35:44.562Z,14.03
2018-09-08T21:38:13.837Z,13.73
2018-09-08T21:40:43.132Z,13.13
2018-09-08T21:43:11.834Z,12.87
2018-09-08T21:45:40.714Z,13.03
2018-09-08T21:48:09.585Z,13.67
2018-09-08T21:50:38.229Z,14.07
2018-09-08T21:53:06.902Z,14.17
2018-09-08T21:55:35.685Z,13.77
2018-09-08T21:58:04.533Z,14.43
2018-09-08T22:00:33.449Z,13.55
2018-09-08T22:03:02.101Z,13.10
2018-09-08T22:05:31.086Z,12.93
2018-09-08T22:07:59.840Z,13.03
2018-09-08T22:10:28.525Z,12.03
2018-09-08T22:12:57.218Z,13.23
2018-09-08T22:15:25.830Z,14.87
2018-09-08T22:17:54.442Z,13.67
2018-09-08T22:20:23.226Z,12.33
2018-09-08T22:22:51.958Z,12.50
2018-09-08T22:25:20.577Z,12.10
2018-09-08T22:27:50.134Z,12.70
2018-09-08T22:30:18.842Z,12.33
2018-09-08T22:32:47.609Z,12.97
2018-09-08T22:35:16.913Z,12.47
2018-09-08T22:37:45.614Z,13.87
2018-09-08T22:40:15.109Z,12.83
2018-09-08T22:42:43.781Z,13.77
2018-09-08T22:45:12.547Z,13.77
2018-09-08T22:47:41.151Z,12.60
2018-09-08T22:50:09.833Z,11.83
2018-09-08T22:52:38.553Z,11.20
2018-09-08T22:55:07.389Z,11.83
2018-09-08T22:57:36.107Z,11.37
2018-09-08T23:00:06.173Z,10.98
2018-09-08T23:02:35.007Z,10.80
2018-09-08T23:05:03.765Z,10.00
2018-09-08T23:07:33.248Z,10.33
2018-09-08T23:10:02.608Z,10.67
2018-09-08T23:12:33.358Z,10.87
2018-09-08T23:15:02.625Z,9.87
2018-09-08T23:17:32.345Z,9.13
2018-09-08T23:20:01.278Z,9.20
2018-09-08T23:22:30.009Z,9.67
2018-09-08T23:24:59.529Z,9.83
2018-09-08T23:27:28.218Z,10.07
2018-09-08T23:29:57.461Z,9.37
2018-09-08T23:32:26.108Z,9.33
2018-09-08T23:34:54.770Z,10.00
2018-09-08T23:37:23.462Z,9.67
2018-09-08T23:39:52.070Z,9.70
2018-09-08T23:42:20.923Z,9.73
2018-09-08T23:44:49.614Z,9.30
2018-09-08T23:47:18.249Z,9.17
2018-09-08T23:49:46.950Z,8.83
2018-09-08T23:52:15.729Z,8.20
2018-09-08T23:54:44.529Z,8.20
2018-09-08T23:57:13.259Z,8.40
2018-09-08T23:59:41.901Z,8.10
